Time;durP1;ratioP1;P1;durP2;ratioP2;P2;SDS_P1;SDS_P2;PMS_P1;PMS_P2;Temp;Humidity;BMP_temperature;BMP_pressure;BME280_temperature;BME280_humidity;BME280_pressure;Samples;Min_cycle;Max_cycle;Signal;HPM_P1;HPM_P2
2023/11/08 00:00:04;;;;;;;4.90;3.10;;;;;;;7.03;88.69;96378.60;108629;1275;22528;-72
2023/11/08 00:02:37;;;;;;;6.80;3.90;;;;;;;7.08;88.66;96384.04;108627;1275;22797;-72
2023/11/08 00:05:09;;;;;;;6.30;3.70;;;;;;;7.13;88.56;96382.40;108546;1270;22553;-72
2023/11/08 00:07:41;;;;;;;7.60;4.00;;;;;;;7.10;88.40;96381.77;108599;1275;24408;-72
2023/11/08 00:10:13;;;;;;;10.40;3.90;;;;;;;7.08;88.51;96379.66;108587;1275;22557;-72
2023/11/08 00:12:45;;;;;;;8.40;4.40;;;;;;;7.09;88.70;96377.55;108568;1275;22548;-72
2023/11/08 00:15:16;;;;;;;10.20;4.20;;;;;;;7.12;88.77;96376.23;108583;1275;23832;-72
2023/11/08 00:17:47;;;;;;;7.20;3.80;;;;;;;7.18;88.70;96376.36;108615;1273;22507;-72
2023/11/08 00:20:18;;;;;;;7.00;4.40;;;;;;;7.22;88.56;96375.48;108583;1272;24269;-73
2023/11/08 00:22:49;;;;;;;6.80;3.80;;;;;;;7.30;88.66;96376.73;108617;1274;25503;-72
2023/11/08 00:25:20;;;;;;;7.10;4.20;;;;;;;7.35;88.42;96374.33;108578;1270;22535;-72
2023/11/08 00:27:51;;;;;;;7.30;4.10;;;;;;;7.37;88.46;96374.85;108600;1272;22538;-72
2023/11/08 00:30:22;;;;;;;7.30;4.10;;;;;;;7.36;88.40;96371.47;108610;1275;22517;-72
2023/11/08 00:32:53;;;;;;;5.30;3.30;;;;;;;7.36;88.48;96372.95;108580;1267;22612;-72
2023/11/08 00:35:24;;;;;;;6.10;3.80;;;;;;;7.34;88.56;96375.33;108582;1271;22537;-73
2023/11/08 00:37:55;;;;;;;5.90;3.60;;;;;;;7.33;88.69;96376.42;108574;1273;22564;-72
2023/11/08 00:40:25;;;;;;;8.30;4.90;;;;;;;7.31;88.60;96375.88;108596;1275;22525;-73
2023/11/08 00:42:56;;;;;;;8.00;4.20;;;;;;;7.28;88.82;96377.52;108589;1270;22820;-72
2023/11/08 00:45:27;;;;;;;8.50;4.40;;;;;;;7.24;88.94;96369.82;108551;1274;22524;-72
2023/11/08 00:47:58;;;;;;;7.20;4.60;;;;;;;7.20;89.03;96365.83;108588;1275;22551;-72
2023/11/08 00:50:30;;;;;;;6.70;4.30;;;;;;;7.20;89.48;96366.45;108610;1267;22528;-72
2023/11/08 00:53:03;;;;;;;8.40;4.20;;;;;;;7.18;89.58;96360.80;108592;1275;23278;-72
2023/11/08 00:55:35;;;;;;;7.20;4.60;;;;;;;7.12;89.63;96359.84;108614;1273;22509;-72
2023/11/08 00:58:08;;;;;;;7.30;3.80;;;;;;;7.09;90.10;96364.05;108606;1275;22524;-73
2023/11/08 01:00:39;;;;;;;6.90;3.50;;;;;;;7.08;90.30;96364.80;108618;1274;22537;-72
2023/11/08 01:03:12;;;;;;;7.70;4.20;;;;;;;7.09;90.69;96365.74;108597;1275;22540;-72
2023/11/08 01:05:43;;;;;;;6.50;3.80;;;;;;;7.12;90.80;96364.21;108544;1268;22550;-72
2023/11/08 01:08:14;;;;;;;8.30;3.60;;;;;;;7.13;90.77;96361.05;108601;1272;22525;-72
2023/11/08 01:10:46;;;;;;;7.00;3.30;;;;;;;7.13;90.85;96361.00;108576;1270;22558;-72
2023/11/08 01:13:17;;;;;;;9.50;5.10;;;;;;;7.13;90.94;96356.67;108591;1275;24953;-72
2023/11/08 01:15:48;;;;;;;8.40;4.30;;;;;;;7.11;90.82;96354.10;108555;1275;22538;-73
2023/11/08 01:18:19;;;;;;;7.20;4.00;;;;;;;7.06;90.78;96349.73;108604;1267;25429;-73
2023/11/08 01:20:50;;;;;;;8.30;4.50;;;;;;;6.95;90.57;96347.64;108616;1267;22647;-72
2023/11/08 01:23:21;;;;;;;7.20;4.40;;;;;;;6.85;90.89;96349.25;108564;1275;24244;-72
2023/11/08 01:25:52;;;;;;;8.60;4.90;;;;;;;6.78;91.07;96347.61;108578;1267;24228;-72
2023/11/08 01:28:23;;;;;;;7.60;4.80;;;;;;;6.73;91.48;96344.99;108562;1267;22559;-73
2023/11/08 01:30:54;;;;;;;7.10;4.80;;;;;;;6.71;91.60;96346.79;108588;1275;22551;-72
2023/11/08 01:33:25;;;;;;;10.80;5.70;;;;;;;6.70;91.94;96342.73;108591;1275;22524;-72
2023/11/08 01:35:56;;;;;;;9.20;5.50;;;;;;;6.73;92.08;96341.58;108587;1267;22527;-72
2023/11/08 01:38:27;;;;;;;7.40;5.00;;;;;;;6.76;92.18;96341.59;108630;1275;24450;-72
2023/11/08 01:40:58;;;;;;;9.90;5.80;;;;;;;6.78;92.16;96335.13;108599;1273;22514;-72
2023/11/08 01:43:30;;;;;;;7.90;4.70;;;;;;;6.80;92.37;96331.65;108573;1275;25879;-73
2023/11/08 01:46:08;;;;;;;7.90;5.00;;;;;;;6.82;92.51;96329.91;108623;1273;24238;-72
2023/11/08 01:48:40;;;;;;;9.00;4.50;;;;;;;6.82;92.49;96328.17;108653;1271;25265;-72
2023/11/08 01:51:12;;;;;;;10.00;5.10;;;;;;;6.79;92.59;96329.33;108623;1270;22635;-72
2023/11/08 01:53:46;;;;;;;7.10;4.60;;;;;;;6.78;92.89;96328.48;108596;1275;27392;-72
2023/11/08 01:56:18;;;;;;;9.80;4.70;;;;;;;6.77;93.18;96327.27;108609;1275;25288;-72
2023/11/08 01:58:52;;;;;;;8.40;4.60;;;;;;;6.74;92.91;96331.67;108585;1275;22527;-73
2023/11/08 02:01:23;;;;;;;6.00;4.20;;;;;;;6.70;93.23;96334.15;108589;1275;22598;-72
2023/11/08 02:03:55;;;;;;;9.00;5.00;;;;;;;6.69;93.57;96331.41;108597;1275;22510;-72
2023/11/08 02:06:26;;;;;;;8.20;5.10;;;;;;;6.70;93.85;96329.35;108592;1274;22535;-73
2023/11/08 02:08:57;;;;;;;8.20;4.80;;;;;;;6.73;94.30;96327.92;108590;1275;22529;-72
2023/11/08 02:11:28;;;;;;;8.70;5.20;;;;;;;6.77;94.70;96326.95;108586;1275;22538;-73
2023/11/08 02:13:59;;;;;;;11.30;5.90;;;;;;;6.80;94.58;96328.54;108571;1270;22521;-72
2023/11/08 02:16:32;;;;;;;9.20;5.10;;;;;;;6.78;94.51;96325.80;108571;1267;24171;-72
2023/11/08 02:19:05;;;;;;;7.00;4.50;;;;;;;6.79;94.57;96326.38;108624;1275;22594;-72
2023/11/08 02:21:36;;;;;;;7.20;4.70;;;;;;;6.80;94.69;96319.67;108635;1273;22539;-72
2023/11/08 02:24:24;;;;;;;9.40;5.80;;;;;;;6.75;94.47;96321.20;108603;1275;22643;-73
2023/11/08 02:26:55;;;;;;;9.40;6.10;;;;;;;6.66;94.49;96321.82;108614;1275;22519;-73
2023/11/08 02:29:26;;;;;;;9.80;5.50;;;;;;;6.63;94.48;96323.82;108570;1268;22646;-73
2023/11/08 02:31:57;;;;;;;7.10;4.90;;;;;;;6.61;94.60;96321.73;108606;1275;26799;-73
2023/11/08 02:34:28;;;;;;;10.10;5.90;;;;;;;6.60;94.53;96323.26;108564;1275;22537;-73
2023/11/08 02:36:59;;;;;;;10.50;5.90;;;;;;;6.56;94.36;96324.36;108579;1275;22532;-73
2023/11/08 02:39:31;;;;;;;9.00;5.70;;;;;;;6.55;94.66;96321.78;108618;1275;22532;-73
2023/11/08 02:42:02;;;;;;;9.70;6.80;;;;;;;6.57;94.74;96326.41;108582;1275;22544;-73
2023/11/08 02:44:33;;;;;;;9.00;5.50;;;;;;;6.53;94.43;96329.73;108580;1275;22533;-73
2023/11/08 02:47:04;;;;;;;9.50;5.60;;;;;;;6.50;94.75;96333.00;108625;1272;24424;-73
2023/11/08 02:49:35;;;;;;;11.30;6.50;;;;;;;6.47;94.77;96332.91;108609;1275;24268;-73
2023/11/08 02:52:06;;;;;;;10.80;6.60;;;;;;;6.45;94.92;96337.96;108528;1275;22737;-73
2023/11/08 02:54:37;;;;;;;8.70;5.90;;;;;;;6.46;95.44;96337.96;108603;1275;22537;-73
2023/11/08 02:57:08;;;;;;;9.60;5.50;;;;;;;6.47;95.56;96341.13;108609;1275;23091;-72
2023/11/08 02:59:40;;;;;;;8.90;5.40;;;;;;;6.48;95.63;96340.10;108608;1267;24049;-72
2023/11/08 03:02:11;;;;;;;8.00;4.90;;;;;;;6.51;96.13;96337.27;108568;1267;25404;-73
2023/11/08 03:04:43;;;;;;;7.40;4.10;;;;;;;6.53;96.15;96334.38;108592;1275;24241;-73
2023/11/08 03:07:14;;;;;;;8.00;4.90;;;;;;;6.53;96.33;96329.73;108612;1269;22551;-73
2023/11/08 03:09:45;;;;;;;6.20;4.70;;;;;;;6.54;96.74;96332.27;108620;1275;25326;-73
2023/11/08 03:12:15;;;;;;;8.90;5.10;;;;;;;6.53;96.93;96331.79;108540;1267;22526;-73
2023/11/08 03:14:46;;;;;;;8.20;5.00;;;;;;;6.53;97.07;96331.36;108591;1269;22525;-73
2023/11/08 03:17:18;;;;;;;9.40;5.10;;;;;;;6.53;97.12;96333.42;108592;1267;23030;-74
2023/11/08 03:19:49;;;;;;;9.10;5.30;;;;;;;6.53;97.24;96333.48;108586;1262;22527;-73
2023/11/08 03:22:21;;;;;;;9.20;5.50;;;;;;;6.54;97.39;96332.84;108625;1271;25281;-73
2023/11/08 03:24:52;;;;;;;8.70;5.50;;;;;;;6.58;97.56;96334.21;108595;1267;24287;-73
2023/11/08 03:27:23;;;;;;;9.20;5.10;;;;;;;6.60;97.28;96341.16;108591;1275;22543;-73
2023/11/08 03:29:54;;;;;;;7.70;5.20;;;;;;;6.59;97.35;96338.05;108564;1269;22524;-73
2023/11/08 03:32:27;;;;;;;6.90;4.40;;;;;;;6.59;97.49;96338.05;108619;1275;23193;-73
2023/11/08 03:34:58;;;;;;;9.10;4.50;;;;;;;6.60;97.58;96343.70;108583;1275;22578;-74
2023/11/08 03:37:29;;;;;;;8.60;4.70;;;;;;;6.58;97.55;96340.59;108567;1275;23114;-73
2023/11/08 03:40:02;;;;;;;8.20;4.40;;;;;;;6.56;97.70;96341.27;108591;1275;24261;-73
2023/11/08 03:42:35;;;;;;;7.90;4.40;;;;;;;6.54;97.80;96337.63;108606;1275;22986;-73
2023/11/08 03:45:07;;;;;;;7.40;4.30;;;;;;;6.54;97.72;96337.68;108553;1269;22530;-74
2023/11/08 03:47:39;;;;;;;8.70;4.80;;;;;;;6.53;97.72;96336.27;108610;1275;22531;-73
2023/11/08 03:50:10;;;;;;;6.70;4.10;;;;;;;6.53;97.89;96340.80;108622;1267;22603;-73
2023/11/08 03:52:41;;;;;;;8.10;4.60;;;;;;;6.53;97.84;96335.37;108577;1275;26767;-73
2023/11/08 03:55:12;;;;;;;8.10;5.00;;;;;;;6.56;98.01;96334.00;108546;1267;23076;-73
2023/11/08 03:57:43;;;;;;;7.20;5.30;;;;;;;6.60;97.94;96331.32;108621;1253;22538;-73
2023/11/08 04:00:16;;;;;;;8.80;6.00;;;;;;;6.61;98.03;96329.79;108579;1267;25415;-74
2023/11/08 04:02:47;;;;;;;11.40;6.10;;;;;;;6.63;98.06;96332.40;108618;1271;24366;-73
2023/11/08 04:05:18;;;;;;;7.60;5.40;;;;;;;6.62;97.84;96337.13;108570;1275;22525;-73
2023/11/08 04:07:50;;;;;;;8.50;5.60;;;;;;;6.60;97.66;96341.02;108645;1267;22529;-73
2023/11/08 04:10:21;;;;;;;7.10;5.00;;;;;;;6.54;97.64;96342.80;108574;1274;24386;-73
2023/11/08 04:12:51;;;;;;;8.50;5.50;;;;;;;6.51;97.55;96342.11;108602;1275;25377;-73
2023/11/08 04:15:23;;;;;;;6.70;4.60;;;;;;;6.50;97.68;96346.42;108605;1267;22637;-73
2023/11/08 04:17:53;;;;;;;8.60;5.50;;;;;;;6.51;97.85;96344.84;108616;1275;22523;-73
2023/11/08 04:20:31;;;;;;;8.90;4.70;;;;;;;6.51;97.89;96347.64;108566;1271;22551;-73
2023/11/08 04:23:01;;;;;;;7.80;4.50;;;;;;;6.50;97.98;96350.32;108567;1275;22513;-73
2023/11/08 04:25:33;;;;;;;5.50;4.00;;;;;;;6.49;97.81;96352.21;108555;1275;22527;-73
2023/11/08 04:28:06;;;;;;;7.20;3.90;;;;;;;6.49;98.17;96353.64;108584;1272;22524;-73
2023/11/08 04:30:37;;;;;;;7.30;4.00;;;;;;;6.51;98.40;96351.05;108587;1275;22523;-73
2023/11/08 04:33:08;;;;;;;9.00;5.10;;;;;;;6.53;98.40;96350.44;108613;1268;22565;-73
2023/11/08 04:35:39;;;;;;;8.60;4.50;;;;;;;6.57;98.38;96353.50;108610;1268;22537;-73
2023/11/08 04:38:10;;;;;;;8.60;5.10;;;;;;;6.59;98.40;96353.86;108686;1268;25491;-73
2023/11/08 04:40:41;;;;;;;11.50;6.40;;;;;;;6.61;98.01;96357.02;108591;1272;22531;-73
2023/11/08 04:43:12;;;;;;;11.90;7.60;;;;;;;6.60;98.06;96359.50;108594;1275;24426;-73
2023/11/08 04:45:43;;;;;;;11.50;6.40;;;;;;;6.59;97.93;96353.23;108575;1272;22542;-73
2023/11/08 04:48:14;;;;;;;9.80;6.30;;;;;;;6.56;97.76;96354.86;108600;1268;24503;-73
2023/11/08 04:50:46;;;;;;;11.40;6.90;;;;;;;6.52;97.65;96353.64;108609;1270;22543;-73
2023/11/08 04:53:17;;;;;;;12.70;7.00;;;;;;;6.50;97.81;96359.86;108584;1275;22534;-73
2023/11/08 04:55:48;;;;;;;9.90;6.00;;;;;;;6.48;97.90;96362.48;108608;1275;22534;-73
2023/11/08 04:58:20;;;;;;;13.50;6.60;;;;;;;6.51;97.98;96363.91;108594;1271;22525;-73
2023/11/08 05:00:51;;;;;;;11.10;6.30;;;;;;;6.54;98.27;96362.34;108583;1267;22636;-73
2023/11/08 05:03:22;;;;;;;9.90;6.10;;;;;;;6.58;98.14;96366.92;108576;1275;24447;-73
2023/11/08 05:05:55;;;;;;;10.00;5.70;;;;;;;6.60;98.21;96368.40;108629;1275;25268;-73
2023/11/08 05:08:26;;;;;;;9.20;6.00;;;;;;;6.62;98.21;96362.53;108617;1275;22539;-73
2023/11/08 05:10:57;;;;;;;11.10;5.90;;;;;;;6.64;98.22;96368.80;108606;1269;22695;-73
2023/11/08 05:13:28;;;;;;;9.80;6.00;;;;;;;6.67;98.15;96370.39;108542;1275;22557;-73
2023/11/08 05:15:59;;;;;;;9.80;6.90;;;;;;;6.64;98.12;96369.96;108612;1274;22556;-73
2023/11/08 05:18:30;;;;;;;10.80;6.40;;;;;;;6.63;98.16;96373.23;108598;1275;22516;-73
2023/11/08 05:21:01;;;;;;;10.80;7.20;;;;;;;6.62;98.18;96372.59;108620;1267;24270;-73
2023/11/08 05:23:33;;;;;;;9.80;6.30;;;;;;;6.59;98.07;96371.24;108599;1265;22528;-73
2023/11/08 05:26:06;;;;;;;11.40;7.30;;;;;;;6.57;98.38;96373.71;108576;1275;22563;-73
2023/11/08 05:28:37;;;;;;;11.70;7.60;;;;;;;6.57;98.40;96373.88;108583;1275;22562;-73
2023/11/08 05:31:08;;;;;;;10.30;6.90;;;;;;;6.57;98.24;96378.36;108608;1275;22935;-73
2023/11/08 05:33:41;;;;;;;10.80;7.10;;;;;;;6.55;98.41;96378.51;108570;1272;22943;-74
2023/11/08 05:36:12;;;;;;;10.60;6.40;;;;;;;6.57;98.42;96385.46;108658;1272;22550;-73
2023/11/08 05:38:43;;;;;;;10.60;6.50;;;;;;;6.58;98.58;96382.63;108644;1275;22537;-73
2023/11/08 05:41:20;;;;;;;10.40;7.90;;;;;;;6.59;98.49;96385.94;108617;1267;22608;-73
2023/11/08 05:43:52;;;;;;;11.30;7.80;;;;;;;6.61;98.42;96388.21;108623;1268;22652;-73
2023/11/08 05:46:23;;;;;;;10.70;7.10;;;;;;;6.62;98.49;96390.92;108620;1269;24373;-73
2023/11/08 05:48:55;;;;;;;11.00;7.10;;;;;;;6.63;98.46;96387.51;108577;1275;22534;-73
2023/11/08 05:51:27;;;;;;;10.00;7.20;;;;;;;6.60;98.27;96392.33;108578;1275;25398;-73
2023/11/08 05:53:59;;;;;;;11.50;7.30;;;;;;;6.61;98.40;96393.13;108607;1275;25334;-73
2023/11/08 05:56:29;;;;;;;10.80;7.40;;;;;;;6.62;98.35;96404.92;108615;1275;24375;-73
2023/11/08 05:59:00;;;;;;;12.30;7.20;;;;;;;6.61;98.36;96406.17;108561;1272;22551;-73
2023/11/08 06:01:32;;;;;;;12.30;7.60;;;;;;;6.58;98.20;96411.12;108576;1275;24216;-73
2023/11/08 06:04:03;;;;;;;12.30;7.70;;;;;;;6.56;98.38;96410.75;108610;1275;22535;-73
2023/11/08 06:06:35;;;;;;;11.60;8.00;;;;;;;6.57;98.43;96413.70;108608;1275;25458;-73
2023/11/08 06:09:08;;;;;;;12.20;7.60;;;;;;;6.60;98.45;96417.86;108595;1275;22632;-73
2023/11/08 06:11:39;;;;;;;11.70;7.20;;;;;;;6.60;98.19;96415.77;108553;1272;22997;-73
2023/11/08 06:14:10;;;;;;;11.10;7.90;;;;;;;6.60;98.26;96412.49;108527;1267;24304;-73
2023/11/08 06:16:42;;;;;;;13.00;7.50;;;;;;;6.57;98.27;96414.55;108616;1267;22513;-73
2023/11/08 06:19:14;;;;;;;9.90;6.80;;;;;;;6.55;98.36;96419.27;108632;1275;25380;-73
2023/11/08 06:21:49;;;;;;;10.60;7.80;;;;;;;6.55;98.23;96422.85;108566;1268;22625;-73
2023/11/08 06:24:20;;;;;;;11.40;8.20;;;;;;;6.50;98.16;96425.38;108580;1275;25260;-73
2023/11/08 06:26:51;;;;;;;12.80;8.70;;;;;;;6.49;98.23;96426.33;108608;1274;22543;-73
2023/11/08 06:29:22;;;;;;;12.70;8.10;;;;;;;6.50;98.55;96427.90;108591;1275;22606;-73
2023/11/08 06:31:54;;;;;;;14.70;8.70;;;;;;;6.52;98.51;96431.02;108586;1275;22549;-73
2023/11/08 06:34:25;;;;;;;13.50;8.70;;;;;;;6.53;98.48;96435.02;108561;1275;25503;-73
2023/11/08 06:36:56;;;;;;;13.50;9.20;;;;;;;6.54;98.43;96436.98;108613;1251;22533;-73
2023/11/08 06:39:28;;;;;;;11.60;7.90;;;;;;;6.57;98.49;96442.30;108585;1275;24319;-73
2023/11/08 06:42:00;;;;;;;15.30;8.50;;;;;;;6.58;98.35;96446.09;108593;1274;22528;-73
2023/11/08 06:44:31;;;;;;;14.20;9.00;;;;;;;6.58;98.40;96444.98;108593;1275;22526;-73
2023/11/08 06:47:02;;;;;;;12.40;8.50;;;;;;;6.62;98.35;96451.45;108566;1275;22613;-74
2023/11/08 06:49:33;;;;;;;11.30;8.00;;;;;;;6.64;98.50;96449.52;108596;1275;23274;-73
2023/11/08 06:52:05;;;;;;;11.60;7.80;;;;;;;6.66;98.38;96454.31;108567;1275;25388;-73
2023/11/08 06:54:36;;;;;;;10.70;7.30;;;;;;;6.69;98.55;96459.05;108563;1275;22543;-73
2023/11/08 06:57:07;;;;;;;14.80;8.70;;;;;;;6.72;98.74;96462.48;108613;1275;22527;-73
2023/11/08 06:59:38;;;;;;;9.40;5.90;;;;;;;6.77;98.82;96463.11;108598;1268;22524;-73
2023/11/08 07:02:09;;;;;;;7.10;5.10;;;;;;;6.81;98.81;96462.65;108555;1267;22649;-72
2023/11/08 07:04:40;;;;;;;10.40;5.80;;;;;;;6.86;98.80;96464.88;108561;1275;22520;-73
2023/11/08 07:07:12;;;;;;;11.40;6.80;;;;;;;6.91;98.90;96463.05;108580;1269;22620;-73
2023/11/08 07:09:47;;;;;;;10.20;7.70;;;;;;;6.94;98.93;96465.66;108609;1275;22527;-73
2023/11/08 07:12:18;;;;;;;11.30;7.70;;;;;;;6.95;98.67;96468.39;108576;1271;22667;-73
2023/11/08 07:14:49;;;;;;;13.60;9.10;;;;;;;6.95;98.64;96475.83;108589;1275;22531;-73
2023/11/08 07:17:20;;;;;;;11.70;8.30;;;;;;;6.95;98.74;96475.20;108586;1268;22518;-73
2023/11/08 07:19:52;;;;;;;11.00;7.60;;;;;;;6.97;98.83;96476.46;108592;1274;22540;-73
2023/11/08 07:22:22;;;;;;;7.80;5.10;;;;;;;6.98;98.66;96480.89;108583;1275;22522;-73
2023/11/08 07:24:54;;;;;;;9.60;5.70;;;;;;;6.98;98.31;96479.62;108558;1267;22565;-73
2023/11/08 07:27:25;;;;;;;7.00;5.60;;;;;;;7.01;98.30;96484.52;108559;1271;25425;-73
2023/11/08 07:29:56;;;;;;;9.30;6.60;;;;;;;7.04;98.39;96483.66;108600;1275;23080;-73
2023/11/08 07:32:29;;;;;;;9.10;6.00;;;;;;;7.07;98.33;96488.90;108570;1275;22549;-73
2023/11/08 07:35:04;;;;;;;10.60;5.60;;;;;;;7.10;98.43;96488.59;108588;1275;22602;-73
2023/11/08 07:37:36;;;;;;;8.40;5.70;;;;;;;7.10;98.03;96493.23;108621;1275;22560;-73
2023/11/08 07:40:11;;;;;;;9.00;5.90;;;;;;;7.10;97.77;96497.39;108593;1275;22515;-73
2023/11/08 07:42:42;;;;;;;7.00;5.10;;;;;;;7.09;97.60;96492.85;108563;1275;22576;-73
2023/11/08 07:45:14;;;;;;;8.40;5.30;;;;;;;7.04;97.59;96496.20;108602;1275;23138;-73
2023/11/08 07:47:45;;;;;;;7.20;5.10;;;;;;;6.98;97.35;96495.48;108565;1269;22534;-73
2023/11/08 07:50:17;;;;;;;8.30;6.00;;;;;;;6.93;97.50;96496.73;108581;1268;22541;-73
2023/11/08 07:52:48;;;;;;;8.10;5.70;;;;;;;6.91;97.46;96500.74;108597;1264;22532;-73
2023/11/08 07:55:19;;;;;;;8.30;6.00;;;;;;;6.91;97.54;96505.17;108544;1275;22554;-73
2023/11/08 07:57:50;;;;;;;9.40;7.20;;;;;;;6.90;97.46;96507.44;108591;1275;22524;-73
2023/11/08 08:00:24;;;;;;;7.80;6.20;;;;;;;6.89;97.53;96511.95;108606;1268;24233;-73
2023/11/08 08:03:16;;;;;;;8.00;6.10;;;;;;;6.88;97.54;96512.25;108555;1275;22526;-73
2023/11/08 08:05:47;;;;;;;8.90;6.50;;;;;;;6.86;97.47;96514.30;108582;1275;22542;-73
2023/11/08 08:08:19;;;;;;;9.20;7.50;;;;;;;6.85;97.48;96516.14;108601;1275;22525;-73
2023/11/08 08:10:50;;;;;;;9.70;7.00;;;;;;;6.85;97.57;96517.52;108593;1275;22530;-73
2023/11/08 08:13:21;;;;;;;8.30;6.80;;;;;;;6.84;97.37;96520.83;108542;1275;27309;-73
2023/11/08 08:15:53;;;;;;;10.90;7.80;;;;;;;6.84;97.59;96525.41;108620;1267;22523;-73
2023/11/08 08:18:24;;;;;;;9.80;8.00;;;;;;;6.84;97.53;96519.41;108581;1269;22550;-73
2023/11/08 08:20:55;;;;;;;9.30;7.90;;;;;;;6.85;97.44;96521.94;108606;1267;22537;-73
2023/11/08 08:23:26;;;;;;;8.90;7.30;;;;;;;6.85;97.44;96521.05;108538;1275;23652;-73
2023/11/08 08:25:57;;;;;;;8.70;6.40;;;;;;;6.86;97.33;96522.31;108611;1263;22521;-73
2023/11/08 08:28:34;;;;;;;8.50;6.90;;;;;;;6.86;97.12;96516.20;108608;1275;22528;-73
2023/11/08 08:31:08;;;;;;;9.60;7.60;;;;;;;6.84;97.27;96521.89;108585;1275;22577;-73
2023/11/08 08:33:39;;;;;;;5.70;4.70;;;;;;;6.84;97.16;96519.89;108565;1274;25416;-73
2023/11/08 08:36:11;;;;;;;6.90;5.70;;;;;;;6.83;96.91;96520.23;108647;1274;22529;-73
2023/11/08 08:38:43;;;;;;;9.50;7.10;;;;;;;6.82;96.75;96520.92;108589;1269;22526;-73
2023/11/08 08:41:13;;;;;;;6.90;5.40;;;;;;;6.82;96.73;96527.10;108621;1274;25803;-73
2023/11/08 08:43:44;;;;;;;7.40;5.20;;;;;;;6.84;96.67;96528.95;108541;1270;22524;-73
2023/11/08 08:46:15;;;;;;;7.60;5.10;;;;;;;6.84;96.48;96530.58;108550;1268;26794;-73
2023/11/08 08:48:46;;;;;;;7.00;5.60;;;;;;;6.84;96.50;96531.00;108575;1274;22594;-73
2023/11/08 08:51:17;;;;;;;7.70;6.70;;;;;;;6.83;96.63;96538.42;108598;1275;25301;-73
2023/11/08 08:53:48;;;;;;;10.60;6.30;;;;;;;6.83;96.28;96538.54;108525;1268;22650;-74
2023/11/08 08:56:20;;;;;;;6.50;5.00;;;;;;;6.81;96.25;96541.22;108466;1275;22630;-73
2023/11/08 08:58:51;;;;;;;8.00;6.00;;;;;;;6.82;96.14;96543.54;108499;1276;22558;-73
2023/11/08 09:01:22;;;;;;;7.40;5.80;;;;;;;6.83;96.05;96538.96;108416;1275;22544;-75
2023/11/08 09:03:54;;;;;;;5.50;4.10;;;;;;;6.84;95.86;96535.54;108608;1268;22615;-73
2023/11/08 09:06:25;;;;;;;4.60;3.70;;;;;;;6.86;95.87;96539.70;108626;1271;24337;-73
2023/11/08 09:08:56;;;;;;;5.90;4.20;;;;;;;6.84;95.43;96545.23;108559;1268;22573;-73
2023/11/08 09:11:27;;;;;;;4.60;3.30;;;;;;;6.85;95.33;96548.45;108543;1269;22549;-73
2023/11/08 09:13:58;;;;;;;5.40;4.20;;;;;;;6.85;95.17;96550.19;108568;1275;25550;-73
2023/11/08 09:16:28;;;;;;;3.20;2.80;;;;;;;6.84;94.94;96549.02;108617;1275;25380;-73
2023/11/08 09:18:59;;;;;;;3.50;2.40;;;;;;;6.78;94.76;96553.16;108584;1271;22515;-73
2023/11/08 09:21:30;;;;;;;3.70;2.70;;;;;;;6.71;94.81;96557.95;108567;1269;22528;-73
2023/11/08 09:24:05;;;;;;;4.30;3.60;;;;;;;6.62;95.06;96556.59;108553;1269;22550;-73
2023/11/08 09:26:37;;;;;;;4.20;3.30;;;;;;;6.56;95.38;96563.39;108595;1267;23848;-73
2023/11/08 09:29:08;;;;;;;4.70;3.60;;;;;;;6.52;95.58;96560.27;108552;1275;22596;-73
2023/11/08 09:31:40;;;;;;;4.90;4.10;;;;;;;6.46;95.89;96561.75;108568;1267;22985;-73
2023/11/08 09:34:12;;;;;;;4.60;3.60;;;;;;;6.40;96.17;96559.08;108597;1269;25357;-73
2023/11/08 09:36:46;;;;;;;3.60;2.70;;;;;;;6.35;96.54;96555.47;108524;1275;25467;-73
2023/11/08 09:39:18;;;;;;;3.40;3.00;;;;;;;6.36;96.47;96555.67;108673;1275;22556;-73
2023/11/08 09:41:49;;;;;;;4.70;2.40;;;;;;;6.40;96.51;96551.75;108539;1267;25266;-74
2023/11/08 09:44:21;;;;;;;3.10;2.00;;;;;;;6.46;96.25;96555.95;108573;1275;22520;-73
2023/11/08 09:46:54;;;;;;;2.50;1.70;;;;;;;6.49;96.19;96556.73;108627;1268;23340;-75
2023/11/08 09:49:26;;;;;;;1.60;1.30;;;;;;;6.48;95.71;96559.51;108650;1275;22547;-73
2023/11/08 09:51:57;;;;;;;2.30;1.30;;;;;;;6.44;95.19;96553.67;108710;1269;22531;-74
2023/11/08 09:54:28;;;;;;;1.90;1.50;;;;;;;6.40;94.96;96551.29;108709;1275;22545;-75
2023/11/08 09:57:00;;;;;;;2.60;1.30;;;;;;;6.37;95.05;96551.32;108683;1275;24193;-74
2023/11/08 09:59:33;;;;;;;5.30;3.10;;;;;;;6.38;94.83;96557.63;108632;1275;22997;-74
2023/11/08 10:02:08;;;;;;;2.70;2.50;;;;;;;6.40;95.01;96560.34;108648;1275;22523;-73
2023/11/08 10:04:40;;;;;;;4.00;2.60;;;;;;;6.48;94.97;96563.35;108603;1275;22553;-74
2023/11/08 10:07:11;;;;;;;2.00;1.70;;;;;;;6.55;94.82;96561.55;108584;1271;22535;-74
2023/11/08 10:09:42;;;;;;;4.20;2.50;;;;;;;6.57;94.46;96564.25;108605;1275;22692;-73
2023/11/08 10:12:13;;;;;;;5.00;4.50;;;;;;;6.62;94.53;96561.98;108568;1269;22556;-73
2023/11/08 10:14:44;;;;;;;3.10;2.80;;;;;;;6.64;94.07;96560.46;108608;1275;23470;-74
2023/11/08 10:17:34;;;;;;;2.80;2.20;;;;;;;6.71;93.98;96558.22;108595;1275;22542;-74
2023/11/08 10:20:08;;;;;;;4.20;3.10;;;;;;;6.79;94.15;96558.70;108601;1275;25454;-74
2023/11/08 10:22:49;;;;;;;3.20;2.60;;;;;;;6.89;94.12;96562.48;108595;1272;23231;-74
2023/11/08 10:25:20;;;;;;;3.20;2.70;;;;;;;6.94;94.08;96558.83;108552;1275;25256;-73
2023/11/08 10:28:04;;;;;;;4.20;2.90;;;;;;;7.05;94.42;96556.20;108594;1275;22716;-73
2023/11/08 10:30:39;;;;;;;4.90;2.50;;;;;;;7.15;94.26;96555.92;108629;1274;22683;-74
2023/11/08 10:33:11;;;;;;;2.90;2.40;;;;;;;7.20;94.20;96555.42;108571;1275;22536;-74
2023/11/08 10:35:46;;;;;;;4.80;2.90;;;;;;;7.24;94.27;96550.06;108598;1269;22534;-73
2023/11/08 10:38:20;;;;;;;5.10;3.40;;;;;;;7.30;94.24;96549.55;108602;1273;25743;-73
2023/11/08 10:40:51;;;;;;;3.50;3.20;;;;;;;7.30;93.87;96545.27;108605;1269;22524;-73
2023/11/08 10:43:25;;;;;;;2.90;2.40;;;;;;;7.30;93.86;96544.91;108549;1275;22535;-73
2023/11/08 10:45:56;;;;;;;3.40;3.00;;;;;;;7.33;94.07;96543.08;108587;1271;23005;-73
2023/11/08 10:48:27;;;;;;;3.10;2.80;;;;;;;7.39;93.89;96541.56;108589;1269;22563;-73
2023/11/08 10:51:00;;;;;;;2.70;2.40;;;;;;;7.40;93.80;96543.89;108592;1275;23842;-73
2023/11/08 10:53:31;;;;;;;3.70;2.70;;;;;;;7.40;93.71;96544.84;108535;1275;27797;-73
2023/11/08 10:56:04;;;;;;;2.30;2.00;;;;;;;7.41;93.54;96544.84;108588;1275;26468;-74
2023/11/08 10:58:39;;;;;;;1.60;1.50;;;;;;;7.36;93.28;96541.72;108606;1268;25464;-74
2023/11/08 11:01:13;;;;;;;3.00;1.90;;;;;;;7.28;92.98;96541.73;108595;1275;24277;-73
2023/11/08 11:03:47;;;;;;;1.70;1.40;;;;;;;7.27;93.10;96534.66;108541;1267;29762;-74
2023/11/08 11:06:19;;;;;;;3.30;2.30;;;;;;;7.32;93.16;96534.42;108642;1275;22547;-73
2023/11/08 11:08:54;;;;;;;2.30;1.90;;;;;;;7.38;93.06;96531.39;108582;1269;22516;-74
2023/11/08 11:11:26;;;;;;;2.60;2.20;;;;;;;7.43;93.01;96535.71;108611;1269;22596;-74
2023/11/08 11:14:05;;;;;;;2.40;1.90;;;;;;;7.49;93.10;96532.00;108568;1275;22546;-73
2023/11/08 11:16:44;;;;;;;3.00;2.20;;;;;;;7.56;92.91;96528.16;108594;1271;22807;-73
2023/11/08 11:19:18;;;;;;;4.10;2.40;;;;;;;7.73;92.85;96525.67;108603;1275;22543;-74
2023/11/08 11:21:53;;;;;;;3.10;2.60;;;;;;;7.73;92.25;96527.40;108578;1269;25278;-73
2023/11/08 11:24:45;;;;;;;2.70;2.20;;;;;;;7.71;92.11;96532.93;108559;1275;22601;-73
2023/11/08 11:27:47;;;;;;;2.50;2.30;;;;;;;7.73;92.30;96522.96;108652;1275;24981;-73
2023/11/08 11:30:29;;;;;;;3.40;2.40;;;;;;;7.81;92.27;96522.40;108573;1272;22536;-73
2023/11/08 11:33:01;;;;;;;2.70;2.20;;;;;;;7.89;92.30;96518.51;108551;1275;22520;-73
2023/11/08 11:35:57;;;;;;;4.60;2.60;;;;;;;8.04;92.71;96518.89;108588;1268;22564;-74
2023/11/08 11:38:29;;;;;;;3.20;2.50;;;;;;;8.34;92.80;96520.58;108583;1275;22520;-74
2023/11/08 11:41:24;;;;;;;3.00;2.20;;;;;;;8.57;92.69;96515.77;108620;1268;22521;-74
2023/11/08 11:43:58;;;;;;;2.70;2.20;;;;;;;8.66;91.88;96516.80;108482;1273;160778;-73
2023/11/08 11:46:34;;;;;;;4.50;2.30;;;;;;;8.69;91.40;96514.51;108608;1265;22526;-74
2023/11/08 11:49:13;;;;;;;3.40;2.40;;;;;;;8.87;91.53;96510.24;108578;1275;25407;-73
2023/11/08 11:51:45;;;;;;;3.00;2.00;;;;;;;9.09;91.12;96505.98;108617;1267;22548;-74
2023/11/08 11:54:17;;;;;;;3.10;2.20;;;;;;;9.02;89.81;96501.89;108581;1269;22548;-73